La Plata, New Mexico
Current Conditions -  °F | °C
As of 11:53 PM on Tuesday 21 Oct 2014 (Local Time) from KFMN Reporting Station
Broken Clouds Broken Clouds  
Wind Chill: 51°   Ceiling: 8000
Heat Index: 51°   Visibility: 10mi
Dew Point: 42°   Wind: 6mph
Humidity: 71%   Direction: 60°ENE
Pressure: 30.08"   Gusts: NA
Location:  36.93°N, 108.19°W
Report Text: KFMN 220553Z AUTO 06005KT 10SM BKN080 BKN095 11/06 A3008 RMK AO2 SLP151 T01060056 10183 20106 51010
Loading
Personal Weather Stations






























Interactive Weather Map
Tropical Storm Tracking
New forecast layout! Learn more

10-Day Weather Forecast

Advertisements
Track Severe Weather on mobile